createdAt,value
2018-06-05T00:01:16.090Z,15.87
2018-06-05T00:03:44.621Z,18.97
2018-06-05T00:06:13.077Z,18.33
2018-06-05T00:08:41.617Z,15.90
2018-06-05T00:11:10.054Z,13.90
2018-06-05T00:13:38.506Z,15.60
2018-06-05T00:16:07.772Z,16.13
2018-06-05T00:18:36.215Z,17.53
2018-06-05T00:21:04.694Z,17.70
2018-06-05T00:23:33.173Z,18.70
2018-06-05T00:26:01.631Z,19.20
2018-06-05T00:28:30.751Z,19.00
2018-06-05T00:30:59.250Z,20.57
2018-06-05T00:33:27.711Z,16.87
2018-06-05T00:35:56.158Z,14.60
2018-06-05T00:38:25.324Z,15.90
2018-06-05T00:40:54.346Z,15.87
2018-06-05T00:43:22.802Z,19.20
2018-06-05T00:45:51.949Z,17.67
2018-06-05T00:48:20.446Z,17.20
2018-06-05T00:50:48.911Z,20.87
2018-06-05T00:53:17.458Z,17.73
2018-06-05T00:55:45.970Z,15.23
2018-06-05T01:07:23.804Z,15.73
2018-06-05T01:09:52.305Z,16.07
2018-06-05T01:12:20.763Z,14.80
2018-06-05T01:14:49.283Z,15.43
2018-06-05T01:17:17.742Z,15.73
2018-06-05T01:19:46.179Z,14.87
2018-06-05T01:31:35.266Z,15.58
2018-06-05T01:34:03.738Z,24.83
2018-06-05T01:36:32.174Z,17.63
2018-06-05T01:39:00.658Z,18.87
2018-06-05T01:41:29.110Z,18.93
2018-06-05T01:43:57.566Z,17.93
2018-06-05T01:46:26.038Z,17.73
2018-06-05T01:48:54.773Z,20.63
2018-06-05T01:51:23.225Z,16.90
2018-06-05T01:53:52.055Z,16.20
2018-06-05T01:56:20.541Z,20.43
2018-06-05T01:58:48.993Z,20.00
2018-06-05T02:01:17.538Z,19.42
2018-06-05T02:03:45.982Z,18.37
2018-06-05T02:06:15.603Z,22.52
2018-06-05T02:08:44.050Z,19.50
2018-06-05T02:11:12.502Z,21.80
2018-06-05T02:13:40.937Z,22.90
2018-06-05T02:16:09.774Z,16.97
2018-06-05T02:18:38.199Z,19.07
2018-06-05T02:21:06.657Z,21.70
2018-06-05T02:23:35.140Z,19.13
2018-06-05T02:26:03.602Z,18.30
2018-06-05T02:28:32.074Z,18.87
2018-06-05T02:31:00.553Z,20.63
2018-06-05T02:33:29.736Z,18.13
2018-06-05T02:35:58.199Z,18.17
2018-06-05T02:38:27.357Z,17.53
2018-06-05T02:40:55.808Z,24.87
2018-06-05T02:43:24.274Z,18.17
2018-06-05T02:45:52.774Z,17.10
2018-06-05T02:48:21.276Z,20.50
2018-06-05T02:50:49.730Z,17.70
2018-06-05T02:53:18.389Z,23.07
2018-06-05T02:55:46.873Z,17.07
2018-06-05T03:07:20.685Z,19.10
2018-06-05T03:09:49.126Z,17.97
2018-06-05T03:12:17.600Z,18.60
2018-06-05T03:14:46.073Z,16.57
2018-06-05T03:31:34.341Z,15.20
2018-06-05T03:34:03.317Z,20.37
2018-06-05T03:36:31.846Z,15.23
2018-06-05T03:39:00.378Z,14.70
2018-06-05T03:41:30.079Z,15.38
2018-06-05T03:43:58.602Z,18.37
2018-06-05T03:46:27.074Z,18.60
2018-06-05T03:48:55.517Z,15.30
2018-06-05T03:51:23.985Z,13.10
2018-06-05T03:53:52.707Z,13.28
2018-06-05T03:56:21.167Z,14.15
2018-06-05T03:58:49.602Z,14.00
2018-06-05T04:01:18.091Z,13.67
2018-06-05T04:03:46.566Z,14.43
2018-06-05T04:06:16.586Z,14.55
2018-06-05T04:08:45.060Z,13.33
2018-06-05T04:30:36.511Z,15.55
2018-06-05T04:35:41.767Z,15.20
2018-06-05T04:38:10.287Z,18.67
2018-06-05T04:40:38.824Z,13.97
2018-06-05T04:43:07.319Z,14.50
2018-06-05T04:45:35.799Z,14.20
2018-06-05T04:48:04.295Z,14.03
2018-06-05T04:50:32.912Z,13.63
2018-06-05T04:53:01.659Z,15.37
2018-06-05T04:55:30.183Z,16.27
2018-06-05T04:57:58.577Z,13.50
2018-06-05T05:00:28.125Z,14.20
2018-06-05T05:02:56.410Z,14.90
2018-06-05T05:05:24.919Z,13.70
2018-06-05T05:07:53.418Z,15.53
2018-06-05T05:10:22.018Z,13.40
2018-06-05T05:12:50.551Z,12.77
2018-06-05T05:15:19.038Z,18.50
2018-06-05T05:17:47.522Z,16.93
2018-06-05T05:29:35.985Z,13.38
2018-06-05T05:32:04.491Z,14.13
2018-06-05T05:34:33.050Z,17.83
2018-06-05T05:37:01.880Z,21.77
2018-06-05T05:39:30.382Z,14.63
2018-06-05T05:41:58.870Z,20.67
2018-06-05T05:44:27.054Z,13.10
2018-06-05T05:46:55.618Z,14.10
2018-06-05T05:49:24.070Z,12.27
2018-06-05T05:51:52.921Z,11.80
2018-06-05T05:54:21.438Z,12.30
2018-06-05T05:56:49.904Z,11.97
2018-06-05T05:59:18.513Z,13.03
2018-06-05T06:01:47.051Z,16.93
2018-06-05T06:04:17.378Z,16.45
2018-06-05T06:06:45.935Z,16.27
2018-06-05T06:19:57.043Z,16.77
2018-06-05T06:22:25.583Z,13.48
2018-06-05T06:24:54.067Z,14.87
2018-06-05T06:27:22.587Z,15.60
2018-06-05T06:29:51.130Z,16.50
2018-06-05T06:32:19.624Z,11.90
2018-06-05T06:34:48.142Z,13.10
2018-06-05T06:37:18.073Z,10.50
2018-06-05T06:39:46.526Z,12.13
2018-06-05T07:00:23.778Z,10.32
2018-06-05T07:02:52.282Z,11.90
2018-06-05T07:05:20.871Z,16.12
2018-06-05T07:07:49.456Z,8.83
2018-06-05T07:10:18.000Z,19.37
2018-06-05T07:12:46.479Z,7.50
2018-06-05T07:31:33.866Z,9.30
2018-06-05T07:34:02.347Z,11.27
2018-06-05T07:36:30.822Z,8.47
2018-06-05T07:39:02.689Z,8.23
2018-06-05T07:41:32.241Z,8.30
2018-06-05T07:44:00.712Z,9.00
2018-06-05T07:46:29.196Z,12.17
2018-06-05T07:48:57.647Z,8.17
2018-06-05T07:51:25.798Z,9.07
2018-06-05T07:53:54.358Z,8.90
2018-06-05T07:56:22.947Z,8.80
2018-06-05T07:58:51.460Z,9.27
2018-06-05T08:01:19.974Z,11.23
2018-06-05T08:03:48.519Z,8.45
2018-06-05T08:06:17.576Z,8.83
2018-06-05T08:08:46.095Z,7.80
2018-06-05T08:17:21.706Z,8.10
2018-06-05T08:19:56.606Z,7.17
2018-06-05T08:22:29.262Z,7.75
2018-06-05T08:24:57.755Z,7.77
2018-06-05T08:27:26.291Z,9.20
2018-06-05T08:29:54.802Z,9.40
2018-06-05T08:32:23.296Z,7.33
2018-06-05T08:34:51.746Z,8.37
2018-06-05T08:37:21.055Z,7.40
2018-06-05T08:39:50.054Z,8.30
2018-06-05T08:42:18.590Z,7.47
2018-06-05T08:44:47.327Z,8.77
2018-06-05T09:06:38.849Z,8.00
2018-06-05T09:11:46.526Z,6.17
2018-06-05T09:25:05.629Z,8.90
2018-06-05T09:27:34.092Z,5.42
2018-06-05T09:30:02.534Z,5.43
2018-06-05T09:32:31.023Z,7.65
2018-06-05T09:34:59.468Z,6.17
2018-06-05T09:37:27.937Z,5.92
2018-06-05T09:39:57.278Z,5.30
2018-06-05T09:42:25.741Z,6.57
2018-06-05T09:44:54.183Z,6.70
2018-06-05T09:47:23.351Z,7.00
2018-06-05T09:49:51.779Z,6.20
2018-06-05T09:52:21.027Z,5.57
2018-06-05T09:54:49.546Z,6.47
2018-06-05T09:57:18.033Z,8.60
2018-06-05T09:59:46.542Z,6.05
2018-06-05T10:20:33.006Z,5.28
2018-06-05T10:23:03.313Z,12.13
2018-06-05T10:25:31.858Z,8.43
2018-06-05T10:28:00.402Z,7.63
2018-06-05T10:30:28.866Z,8.40
2018-06-05T10:32:57.336Z,11.73
2018-06-05T10:35:25.858Z,8.73
2018-06-05T10:37:54.322Z,12.17
2018-06-05T10:40:23.478Z,11.70
2018-06-05T10:42:52.450Z,9.57
2018-06-05T10:45:20.918Z,8.80
2018-06-05T10:47:49.398Z,9.95
2018-06-05T10:50:17.898Z,9.27
2018-06-05T10:52:46.486Z,9.17
2018-06-05T11:05:57.679Z,9.55
2018-06-05T11:08:26.126Z,8.60
2018-06-05T11:10:54.652Z,8.83
2018-06-05T11:13:23.147Z,8.37
2018-06-05T11:15:51.603Z,8.37
2018-06-05T11:18:20.444Z,7.60
2018-06-05T11:20:48.933Z,8.83
2018-06-05T11:23:17.502Z,8.93
2018-06-05T11:25:45.960Z,8.90
2018-06-05T11:31:35.024Z,8.50
2018-06-05T11:34:03.638Z,8.13
2018-06-05T11:36:32.147Z,10.00
2018-06-05T11:39:00.698Z,16.03
2018-06-05T11:41:30.515Z,8.45
2018-06-05T11:43:59.330Z,8.80
2018-06-05T11:46:27.975Z,8.67
2018-06-05T11:48:56.427Z,9.47
2018-06-05T11:51:25.090Z,13.88
2018-06-05T11:53:54.095Z,9.13
2018-06-05T11:56:22.826Z,9.23
2018-06-05T11:58:51.735Z,10.00
2018-06-05T12:01:20.440Z,8.50
2018-06-05T12:03:49.170Z,8.90
2018-06-05T12:06:17.881Z,7.83
2018-06-05T12:08:46.095Z,11.20
2018-06-05T12:17:30.762Z,9.73
2018-06-05T12:19:59.415Z,16.53
2018-06-05T12:22:28.261Z,9.17
2018-06-05T12:24:57.057Z,9.27
2018-06-05T12:27:25.766Z,8.50
2018-06-05T12:29:54.389Z,8.47
2018-06-05T12:32:22.937Z,9.50
2018-06-05T12:34:51.424Z,8.38
2018-06-05T12:37:19.928Z,9.33
2018-06-05T12:39:49.552Z,8.30
2018-06-05T12:42:17.862Z,8.83
2018-06-05T12:44:46.343Z,8.90
2018-06-05T12:57:45.918Z,13.68
2018-06-05T13:07:56.030Z,9.00
2018-06-05T13:10:24.639Z,8.48
2018-06-05T13:12:53.078Z,9.40
2018-06-05T13:15:21.923Z,8.07
2018-06-05T13:17:50.967Z,7.47
2018-06-05T13:20:19.859Z,7.83
2018-06-05T13:22:48.456Z,8.57
2018-06-05T13:25:17.508Z,7.90
2018-06-05T13:27:45.974Z,7.43
2018-06-05T13:42:13.467Z,7.90
2018-06-05T13:44:43.371Z,7.93
2018-06-05T13:47:11.866Z,7.60
2018-06-05T13:49:40.366Z,8.93
2018-06-05T13:52:08.858Z,8.67
2018-06-05T13:54:37.327Z,10.90
2018-06-05T13:57:05.867Z,8.60
2018-06-05T13:59:37.382Z,11.50
2018-06-05T14:02:05.959Z,8.70
2018-06-05T14:04:34.481Z,21.00
2018-06-05T14:07:02.953Z,12.23
2018-06-05T14:09:31.419Z,11.83
2018-06-05T14:12:02.238Z,7.93
2018-06-05T14:14:30.744Z,11.60
2018-06-05T14:16:59.294Z,8.10
2018-06-05T14:19:27.820Z,8.00
2018-06-05T14:21:56.299Z,7.23
2018-06-05T14:24:24.838Z,7.30
2018-06-05T14:26:54.129Z,8.10
2018-06-05T14:29:23.175Z,13.90
2018-06-05T14:31:51.618Z,7.60
2018-06-05T14:34:20.259Z,11.73
2018-06-05T14:36:48.773Z,7.70
2018-06-05T14:39:17.399Z,7.87
2018-06-05T14:41:45.901Z,10.50
2018-06-05T15:02:24.641Z,7.85
2018-06-05T15:04:53.180Z,8.83
2018-06-05T15:07:21.669Z,9.20
2018-06-05T15:09:50.237Z,8.03
2018-06-05T15:12:18.740Z,7.60
2018-06-05T15:14:47.189Z,8.20
2018-06-05T15:17:17.483Z,7.85
2018-06-05T15:19:45.945Z,7.37
2018-06-05T15:28:12.131Z,8.40
2018-06-05T15:30:40.619Z,7.60
2018-06-05T15:33:09.076Z,7.37
2018-06-05T15:35:37.574Z,7.10
2018-06-05T15:38:06.087Z,11.70
2018-06-05T15:40:35.049Z,8.23
2018-06-05T15:43:03.682Z,16.63
2018-06-05T15:45:32.587Z,8.20
2018-06-05T15:48:01.052Z,7.83
2018-06-05T15:50:29.896Z,7.70
2018-06-05T15:52:59.152Z,6.90
2018-06-05T15:55:27.635Z,7.03
2018-06-05T15:57:56.174Z,7.50
2018-06-05T16:00:24.669Z,8.00
2018-06-05T16:02:53.168Z,6.83
2018-06-05T16:05:21.788Z,6.97
2018-06-05T16:07:50.272Z,7.43
2018-06-05T16:10:18.766Z,6.83
2018-06-05T16:12:47.355Z,6.50
2018-06-05T16:15:17.394Z,7.35
2018-06-05T16:17:46.082Z,6.83
2018-06-05T16:31:34.487Z,6.50
2018-06-05T16:34:02.993Z,9.00
2018-06-05T16:36:31.523Z,9.13
2018-06-05T16:39:00.165Z,8.20
2018-06-05T16:41:28.297Z,9.90
2018-06-05T16:43:56.766Z,6.57
2018-06-05T16:46:25.368Z,7.05
2018-06-05T16:48:54.135Z,9.23
2018-06-05T16:51:22.647Z,6.70
2018-06-05T16:53:51.978Z,7.83
2018-06-05T16:56:20.448Z,8.13
2018-06-05T16:58:48.928Z,7.53
2018-06-05T17:01:17.399Z,8.57
2018-06-05T17:03:45.880Z,7.03
2018-06-05T17:16:54.820Z,6.50
2018-06-05T17:19:23.322Z,7.17
2018-06-05T17:21:51.795Z,9.37
2018-06-05T17:24:20.334Z,10.00
2018-06-05T17:26:48.855Z,6.83
2018-06-05T17:29:17.330Z,7.80
2018-06-05T17:31:45.823Z,9.43
2018-06-05T17:51:49.659Z,8.30
2018-06-05T17:54:19.550Z,10.70
2018-06-05T17:56:50.354Z,8.63
2018-06-05T17:59:18.867Z,10.03
2018-06-05T18:01:47.429Z,10.90
2018-06-05T18:04:17.533Z,10.88
2018-06-05T18:06:46.012Z,9.77
2018-06-05T18:27:33.082Z,9.65
2018-06-05T18:30:01.653Z,16.47
2018-06-05T18:32:30.393Z,9.90
2018-06-05T18:34:59.720Z,15.93
2018-06-05T18:37:28.279Z,10.47
2018-06-05T18:39:56.788Z,10.07
2018-06-05T18:42:25.337Z,12.07
2018-06-05T18:44:54.051Z,10.20
2018-06-05T18:47:22.548Z,11.00
2018-06-05T18:49:51.703Z,10.20
2018-06-05T18:52:19.874Z,9.33
2018-06-05T18:54:49.195Z,11.20
2018-06-05T18:57:18.194Z,10.47
2018-06-05T18:59:46.326Z,13.43
2018-06-05T19:12:48.500Z,16.07
2018-06-05T19:15:17.698Z,13.90
2018-06-05T19:17:46.305Z,11.47
2018-06-05T19:31:35.158Z,10.95
2018-06-05T19:34:03.797Z,12.40
2018-06-05T19:36:32.266Z,13.37
2018-06-05T19:39:00.947Z,11.63
2018-06-05T19:41:29.427Z,15.10
2018-06-05T19:43:58.037Z,15.43
2018-06-05T19:46:26.243Z,12.77
2018-06-05T19:48:54.833Z,11.50
2018-06-05T19:51:23.380Z,13.45
2018-06-05T19:53:51.928Z,14.73
2018-06-05T19:56:21.730Z,12.87
2018-06-05T19:58:50.209Z,12.60
2018-06-05T20:01:18.916Z,14.03
2018-06-05T20:03:47.100Z,18.35
2018-06-05T20:12:32.663Z,19.27
2018-06-05T20:15:01.199Z,13.40
2018-06-05T20:17:29.683Z,14.20
2018-06-05T20:19:57.955Z,15.03
2018-06-05T20:22:26.474Z,12.20
2018-06-05T20:24:55.183Z,16.77
2018-06-05T20:27:23.822Z,11.63
2018-06-05T20:29:52.546Z,17.13
2018-06-05T20:32:21.166Z,11.88
2018-06-05T20:34:49.707Z,12.90
2018-06-05T20:37:18.339Z,18.50
2018-06-05T20:39:46.864Z,10.37
2018-06-05T20:52:43.292Z,13.72
2018-06-05T20:55:11.982Z,11.63
2018-06-05T20:57:41.107Z,12.73
2018-06-05T21:00:09.643Z,14.33
2018-06-05T21:02:39.615Z,14.77
2018-06-05T21:05:08.265Z,12.10
2018-06-05T21:07:36.767Z,13.27
2018-06-05T21:10:05.344Z,12.93
2018-06-05T21:12:33.866Z,14.47
2018-06-05T21:15:02.878Z,12.97
2018-06-05T21:17:31.337Z,14.70
2018-06-05T21:19:59.827Z,18.17
2018-06-05T21:22:28.330Z,14.10
2018-06-05T21:24:56.786Z,14.10
2018-06-05T21:27:25.264Z,15.07
2018-06-05T21:29:53.755Z,13.83
2018-06-05T21:32:22.250Z,17.82
2018-06-05T21:34:50.727Z,15.55
2018-06-05T21:37:19.713Z,14.67
2018-06-05T21:39:48.246Z,19.00
2018-06-05T21:42:17.374Z,16.93
2018-06-05T21:44:45.856Z,16.97
2018-06-05T21:53:24.722Z,15.58
2018-06-05T21:55:53.194Z,18.67
2018-06-05T21:58:23.192Z,21.70
2018-06-05T22:00:51.697Z,18.83
2018-06-05T22:03:20.151Z,18.27
2018-06-05T22:05:48.621Z,19.23
2018-06-05T22:08:17.425Z,19.40
2018-06-05T22:10:45.916Z,18.77
2018-06-05T22:31:36.273Z,17.37
2018-06-05T22:34:04.732Z,20.37
2018-06-05T22:36:33.240Z,19.00
2018-06-05T22:39:01.760Z,19.10
2018-06-05T22:41:30.251Z,20.00
2018-06-05T22:43:58.398Z,18.20
2018-06-05T22:46:26.899Z,19.03
2018-06-05T22:48:55.437Z,18.95
2018-06-05T22:51:23.951Z,20.02
2018-06-05T22:53:52.673Z,18.90
2018-06-05T22:56:21.118Z,24.70
2018-06-05T22:58:50.427Z,19.73
2018-06-05T23:01:18.921Z,21.50
2018-06-05T23:03:47.079Z,20.95
2018-06-05T23:06:16.634Z,19.70
2018-06-05T23:08:45.107Z,20.00
2018-06-05T23:11:22.463Z,20.20
2018-06-05T23:13:51.370Z,20.13
2018-06-05T23:16:19.831Z,20.40
2018-06-05T23:18:48.281Z,20.87
2018-06-05T23:21:18.689Z,20.36
2018-06-05T23:23:47.147Z,23.93
2018-06-05T23:26:16.448Z,19.07
2018-06-05T23:28:44.938Z,21.93
2018-06-05T23:31:13.406Z,20.03
2018-06-05T23:33:41.863Z,22.07
2018-06-05T23:36:10.862Z,21.17
2018-06-05T23:38:39.022Z,20.17
2018-06-05T23:41:07.507Z,22.13
2018-06-05T23:43:35.990Z,24.57
2018-06-05T23:46:04.602Z,21.57
2018-06-05T23:48:33.038Z,23.30
2018-06-05T23:51:01.526Z,23.85
2018-06-05T23:53:29.982Z,22.70
2018-06-05T23:55:58.426Z,22.77
2018-06-05T23:58:26.980Z,24.73
